sensor_id;sensor_type;location;lat;lon;timestamp;pressure;altitude;pressure_sealevel;temperature;humidity
47522;BME280;32291;52.010;4.446;2022-09-09T00:00:25;77426.97;;;-144.67;100.00
47522;BME280;32291;52.010;4.446;2022-09-09T00:03:25;77426.97;;;-144.67;100.00
47522;BME280;32291;52.010;4.446;2022-09-09T00:04:37;77420.53;;;-144.67;100.00
47522;BME280;32291;52.010;4.446;2022-09-09T00:06:16;77426.97;;;-144.67;100.00
47522;BME280;32291;52.010;4.446;2022-09-09T00:07:51;77431.25;;;-144.67;100.00
47522;BME280;32291;52.010;4.446;2022-09-09T00:09:12;77426.97;;;-144.67;100.00
47522;BME280;32291;52.010;4.446;2022-09-09T00:10:38;77439.81;;;-144.67;100.00
47522;BME280;32291;52.010;4.446;2022-09-09T00:12:04;77435.53;;;-144.67;100.00
47522;BME280;32291;52.010;4.446;2022-09-09T00:15:02;77439.81;;;-144.67;100.00
47522;BME280;32291;52.010;4.446;2022-09-09T00:16:24;77439.81;;;-144.67;100.00
47522;BME280;32291;52.010;4.446;2022-09-09T00:17:38;77448.38;;;-144.67;100.00
47522;BME280;32291;52.010;4.446;2022-09-09T00:21:59;77446.22;;;-144.67;100.00
47522;BME280;32291;52.010;4.446;2022-09-09T00:22:49;77452.66;;;-144.67;100.00
47522;BME280;32291;52.010;4.446;2022-09-09T00:24:52;77452.66;;;-144.67;100.00
47522;BME280;32291;52.010;4.446;2022-09-09T00:27:45;77452.66;;;-144.67;100.00
47522;BME280;32291;52.010;4.446;2022-09-09T00:29:18;77448.38;;;-144.67;100.00
47522;BME280;32291;52.010;4.446;2022-09-09T00:30:35;77441.94;;;-144.67;100.00
47522;BME280;32291;52.010;4.446;2022-09-09T00:31:45;77448.38;;;-144.67;100.00
47522;BME280;32291;52.010;4.446;2022-09-09T00:32:58;77452.66;;;-144.67;100.00
47522;BME280;32291;52.010;4.446;2022-09-09T00:34:15;77448.38;;;-144.67;100.00
47522;BME280;32291;52.010;4.446;2022-09-09T00:35:35;77448.38;;;-144.67;100.00
47522;BME280;32291;52.010;4.446;2022-09-09T00:36:51;77450.50;;;-144.67;100.00
47522;BME280;32291;52.010;4.446;2022-09-09T00:38:23;77454.78;;;-144.67;100.00
47522;BME280;32291;52.010;4.446;2022-09-09T00:39:46;77454.78;;;-144.67;100.00
47522;BME280;32291;52.010;4.446;2022-09-09T00:42:43;77461.22;;;-144.67;100.00
47522;BME280;32291;52.010;4.446;2022-09-09T00:48:11;77461.22;;;-144.67;100.00
47522;BME280;32291;52.010;4.446;2022-09-09T00:49:56;77456.94;;;-144.67;100.00
47522;BME280;32291;52.010;4.446;2022-09-09T00:51:42;77452.66;;;-144.67;100.00
47522;BME280;32291;52.010;4.446;2022-09-09T00:53:05;77465.50;;;-144.67;100.00
47522;BME280;32291;52.010;4.446;2022-09-09T00:54:44;77461.22;;;-144.67;100.00
47522;BME280;32291;52.010;4.446;2022-09-09T00:56:23;77456.94;;;-144.67;100.00
47522;BME280;32291;52.010;4.446;2022-09-09T00:57:34;77459.06;;;-144.67;100.00
47522;BME280;32291;52.010;4.446;2022-09-09T01:00:32;77461.22;;;-144.67;100.00
47522;BME280;32291;52.010;4.446;2022-09-09T01:01:46;77469.78;;;-144.67;100.00
47522;BME280;32291;52.010;4.446;2022-09-09T01:05:13;77474.06;;;-144.67;100.00
47522;BME280;32291;52.010;4.446;2022-09-09T01:06:41;77478.34;;;-144.67;100.00
47522;BME280;32291;52.010;4.446;2022-09-09T01:07:50;77478.34;;;-144.67;100.00
47522;BME280;32291;52.010;4.446;2022-09-09T01:09:25;77476.19;;;-144.67;100.00
47522;BME280;32291;52.010;4.446;2022-09-09T01:10:50;77478.34;;;-144.67;100.00
47522;BME280;32291;52.010;4.446;2022-09-09T01:12:23;77469.78;;;-144.67;100.00
47522;BME280;32291;52.010;4.446;2022-09-09T01:13:35;77476.19;;;-144.67;100.00
47522;BME280;32291;52.010;4.446;2022-09-09T01:14:49;77478.34;;;-144.67;100.00
47522;BME280;32291;52.010;4.446;2022-09-09T01:16:02;77469.78;;;-144.67;100.00
47522;BME280;32291;52.010;4.446;2022-09-09T01:17:26;77471.91;;;-144.67;100.00
47522;BME280;32291;52.010;4.446;2022-09-09T01:18:46;77469.78;;;-144.67;100.00
47522;BME280;32291;52.010;4.446;2022-09-09T01:20:17;77469.78;;;-144.67;100.00
47522;BME280;32291;52.010;4.446;2022-09-09T01:22:00;77478.34;;;-144.67;100.00
47522;BME280;32291;52.010;4.446;2022-09-09T01:27:05;77465.50;;;-144.67;100.00
47522;BME280;32291;52.010;4.446;2022-09-09T01:28:23;77469.78;;;-144.67;100.00
47522;BME280;32291;52.010;4.446;2022-09-09T01:29:29;77463.34;;;-144.67;100.00
47522;BME280;32291;52.010;4.446;2022-09-09T01:30:35;77459.06;;;-144.67;100.00
47522;BME280;32291;52.010;4.446;2022-09-09T01:32:03;77461.22;;;-144.67;100.00
47522;BME280;32291;52.010;4.446;2022-09-09T01:34:04;77452.66;;;-144.67;100.00
47522;BME280;32291;52.010;4.446;2022-09-09T01:35:43;77441.94;;;-144.67;100.00
47522;BME280;32291;52.010;4.446;2022-09-09T01:37:14;77441.94;;;-144.67;100.00
47522;BME280;32291;52.010;4.446;2022-09-09T01:38:18;77439.81;;;-144.67;100.00
47522;BME280;32291;52.010;4.446;2022-09-09T01:39:25;77435.53;;;-144.67;100.00
47522;BME280;32291;52.010;4.446;2022-09-09T01:40:29;77435.53;;;-144.67;100.00
47522;BME280;32291;52.010;4.446;2022-09-09T01:41:32;77435.53;;;-144.67;100.00
47522;BME280;32291;52.010;4.446;2022-09-09T01:42:35;77439.81;;;-144.67;100.00
47522;BME280;32291;52.010;4.446;2022-09-09T01:43:38;77439.81;;;-144.67;100.00
47522;BME280;32291;52.010;4.446;2022-09-09T01:44:45;77437.66;;;-144.67;100.00
47522;BME280;32291;52.010;4.446;2022-09-09T01:45:52;77435.53;;;-144.67;100.00
47522;BME280;32291;52.010;4.446;2022-09-09T01:46:58;77429.09;;;-144.67;100.00
47522;BME280;32291;52.010;4.446;2022-09-09T01:48:02;77433.38;;;-144.67;100.00
47522;BME280;32291;52.010;4.446;2022-09-09T01:49:10;77435.53;;;-144.67;100.00
47522;BME280;32291;52.010;4.446;2022-09-09T01:50:16;77429.09;;;-144.67;100.00
47522;BME280;32291;52.010;4.446;2022-09-09T01:51:20;77435.53;;;-144.67;100.00
47522;BME280;32291;52.010;4.446;2022-09-09T01:52:24;77437.66;;;-144.67;100.00
47522;BME280;32291;52.010;4.446;2022-09-09T01:53:29;77439.81;;;-144.67;100.00
47522;BME280;32291;52.010;4.446;2022-09-09T01:54:33;77439.81;;;-144.67;100.00
47522;BME280;32291;52.010;4.446;2022-09-09T01:55:44;77439.81;;;-144.67;100.00
47522;BME280;32291;52.010;4.446;2022-09-09T01:57:34;77426.97;;;-144.67;100.00
47522;BME280;32291;52.010;4.446;2022-09-09T01:59:28;77426.97;;;-144.67;100.00
47522;BME280;32291;52.010;4.446;2022-09-09T02:03:25;77437.66;;;-144.67;100.00
47522;BME280;32291;52.010;4.446;2022-09-09T02:04:45;77444.09;;;-144.67;100.00
47522;BME280;32291;52.010;4.446;2022-09-09T02:06:27;77439.81;;;-144.67;100.00
47522;BME280;32291;52.010;4.446;2022-09-09T02:07:51;77439.81;;;-144.67;100.00
47522;BME280;32291;52.010;4.446;2022-09-09T02:09:13;77431.25;;;-144.67;100.00
47522;BME280;32291;52.010;4.446;2022-09-09T02:11:55;77448.38;;;-144.67;100.00
47522;BME280;32291;52.010;4.446;2022-09-09T02:13:17;77435.53;;;-144.67;100.00
47522;BME280;32291;52.010;4.446;2022-09-09T02:14:30;77437.66;;;-144.67;100.00
47522;BME280;32291;52.010;4.446;2022-09-09T02:17:36;77439.81;;;-144.67;100.00
47522;BME280;32291;52.010;4.446;2022-09-09T02:19:22;77441.94;;;-144.67;100.00
47522;BME280;32291;52.010;4.446;2022-09-09T02:20:31;77437.66;;;-144.67;100.00
47522;BME280;32291;52.010;4.446;2022-09-09T02:21:38;77437.66;;;-144.67;100.00
47522;BME280;32291;52.010;4.446;2022-09-09T02:22:49;77435.53;;;-144.67;100.00
47522;BME280;32291;52.010;4.446;2022-09-09T02:23:53;77437.66;;;-144.67;100.00
47522;BME280;32291;52.010;4.446;2022-09-09T02:25:00;77420.53;;;-144.67;100.00
47522;BME280;32291;52.010;4.446;2022-09-09T02:26:10;77420.53;;;-144.67;100.00
47522;BME280;32291;52.010;4.446;2022-09-09T02:27:20;77416.25;;;-144.67;100.00
47522;BME280;32291;52.010;4.446;2022-09-09T02:28:31;77409.84;;;-144.67;100.00
47522;BME280;32291;52.010;4.446;2022-09-09T02:29:44;77411.97;;;-144.67;100.00
47522;BME280;32291;52.010;4.446;2022-09-09T02:30:50;77414.13;;;-144.67;100.00
47522;BME280;32291;52.010;4.446;2022-09-09T02:32:02;77409.84;;;-144.67;100.00
47522;BME280;32291;52.010;4.446;2022-09-09T02:33:14;77418.41;;;-144.67;100.00
47522;BME280;32291;52.010;4.446;2022-09-09T02:34:23;77416.25;;;-144.67;100.00
47522;BME280;32291;52.010;4.446;2022-09-09T02:35:29;77414.13;;;-144.67;100.00
47522;BME280;32291;52.010;4.446;2022-09-09T02:36:36;77418.41;;;-144.67;100.00
47522;BME280;32291;52.010;4.446;2022-09-09T02:37:44;77414.13;;;-144.67;100.00
47522;BME280;32291;52.010;4.446;2022-09-09T02:38:52;77414.13;;;-144.67;100.00
47522;BME280;32291;52.010;4.446;2022-09-09T02:39:56;77414.13;;;-144.67;100.00
47522;BME280;32291;52.010;4.446;2022-09-09T02:41:02;77414.13;;;-144.67;100.00
47522;BME280;32291;52.010;4.446;2022-09-09T02:42:05;77416.25;;;-144.67;100.00
47522;BME280;32291;52.010;4.446;2022-09-09T02:43:15;77420.53;;;-144.67;100.00
47522;BME280;32291;52.010;4.446;2022-09-09T02:44:21;77414.13;;;-144.67;100.00
47522;BME280;32291;52.010;4.446;2022-09-09T02:45:31;77409.84;;;-144.67;100.00
47522;BME280;32291;52.010;4.446;2022-09-09T02:47:37;77409.84;;;-144.67;100.00
47522;BME280;32291;52.010;4.446;2022-09-09T02:49:35;77414.13;;;-144.67;100.00
47522;BME280;32291;52.010;4.446;2022-09-09T02:52:24;77411.97;;;-144.67;100.00
47522;BME280;32291;52.010;4.446;2022-09-09T02:54:16;77416.25;;;-144.67;100.00
47522;BME280;32291;52.010;4.446;2022-09-09T02:56:54;77407.69;;;-144.67;100.00
47522;BME280;32291;52.010;4.446;2022-09-09T02:58:11;77401.28;;;-144.67;100.00
47522;BME280;32291;52.010;4.446;2022-09-09T02:59:22;77414.13;;;-144.67;100.00
47522;BME280;32291;52.010;4.446;2022-09-09T03:00:28;77414.13;;;-144.67;100.00
47522;BME280;32291;52.010;4.446;2022-09-09T03:01:44;77414.13;;;-144.67;100.00
47522;BME280;32291;52.010;4.446;2022-09-09T03:02:47;77416.25;;;-144.67;100.00
47522;BME280;32291;52.010;4.446;2022-09-09T03:03:51;77418.41;;;-144.67;100.00
47522;BME280;32291;52.010;4.446;2022-09-09T03:05:00;77426.97;;;-144.67;100.00
47522;BME280;32291;52.010;4.446;2022-09-09T03:06:05;77416.25;;;-144.67;100.00
47522;BME280;32291;52.010;4.446;2022-09-09T03:07:12;77414.13;;;-144.67;100.00
47522;BME280;32291;52.010;4.446;2022-09-09T03:08:14;77416.25;;;-144.67;100.00
47522;BME280;32291;52.010;4.446;2022-09-09T03:09:20;77407.69;;;-144.67;100.00
47522;BME280;32291;52.010;4.446;2022-09-09T03:10:28;77401.28;;;-144.67;100.00
47522;BME280;32291;52.010;4.446;2022-09-09T03:11:36;77403.41;;;-144.67;100.00
47522;BME280;32291;52.010;4.446;2022-09-09T03:12:44;77407.69;;;-144.67;100.00
47522;BME280;32291;52.010;4.446;2022-09-09T03:13:51;77409.84;;;-144.67;100.00
47522;BME280;32291;52.010;4.446;2022-09-09T03:14:57;77405.56;;;-144.67;100.00
47522;BME280;32291;52.010;4.446;2022-09-09T03:16:04;77403.41;;;-144.67;100.00
47522;BME280;32291;52.010;4.446;2022-09-09T03:17:10;77397.00;;;-144.67;100.00
47522;BME280;32291;52.010;4.446;2022-09-09T03:18:14;77392.72;;;-144.67;100.00
47522;BME280;32291;52.010;4.446;2022-09-09T03:19:17;77401.28;;;-144.67;100.00
47522;BME280;32291;52.010;4.446;2022-09-09T03:20:20;77405.56;;;-144.67;100.00
47522;BME280;32291;52.010;4.446;2022-09-09T03:21:26;77399.13;;;-144.67;100.00
47522;BME280;32291;52.010;4.446;2022-09-09T03:22:29;77405.56;;;-144.67;100.00
47522;BME280;32291;52.010;4.446;2022-09-09T03:23:33;77392.72;;;-144.67;100.00
47522;BME280;32291;52.010;4.446;2022-09-09T03:24:37;77390.56;;;-144.67;100.00
47522;BME280;32291;52.010;4.446;2022-09-09T03:25:52;77401.28;;;-144.67;100.00
47522;BME280;32291;52.010;4.446;2022-09-09T03:27:05;77397.00;;;-144.67;100.00
47522;BME280;32291;52.010;4.446;2022-09-09T03:28:11;77390.56;;;-144.67;100.00
47522;BME280;32291;52.010;4.446;2022-09-09T03:29:21;77392.72;;;-144.67;100.00
47522;BME280;32291;52.010;4.446;2022-09-09T03:30:30;77394.84;;;-144.67;100.00
47522;BME280;32291;52.010;4.446;2022-09-09T03:31:36;77390.56;;;-144.67;100.00
47522;BME280;32291;52.010;4.446;2022-09-09T03:32:45;77392.72;;;-144.67;100.00
47522;BME280;32291;52.010;4.446;2022-09-09T03:33:49;77384.16;;;-144.67;100.00
47522;BME280;32291;52.010;4.446;2022-09-09T03:35:00;77384.16;;;-144.67;100.00
47522;BME280;32291;52.010;4.446;2022-09-09T03:36:04;77382.00;;;-144.67;100.00
47522;BME280;32291;52.010;4.446;2022-09-09T03:37:07;77375.59;;;-144.67;100.00
47522;BME280;32291;52.010;4.446;2022-09-09T03:38:14;77375.59;;;-144.67;100.00
47522;BME280;32291;52.010;4.446;2022-09-09T03:39:26;77377.72;;;-144.67;100.00
47522;BME280;32291;52.010;4.446;2022-09-09T03:40:31;77379.88;;;-144.67;100.00
47522;BME280;32291;52.010;4.446;2022-09-09T03:41:37;77373.44;;;-144.67;100.00
47522;BME280;32291;52.010;4.446;2022-09-09T03:42:43;77373.44;;;-144.67;100.00
47522;BME280;32291;52.010;4.446;2022-09-09T03:43:52;77371.31;;;-144.67;100.00
47522;BME280;32291;52.010;4.446;2022-09-09T03:44:56;77371.31;;;-144.67;100.00
47522;BME280;32291;52.010;4.446;2022-09-09T03:46:00;77371.31;;;-144.67;100.00
47522;BME280;32291;52.010;4.446;2022-09-09T03:47:03;77384.16;;;-144.67;100.00
47522;BME280;32291;52.010;4.446;2022-09-09T03:48:17;77384.16;;;-144.67;100.00
47522;BME280;32291;52.010;4.446;2022-09-09T03:49:23;77388.44;;;-144.67;100.00
47522;BME280;32291;52.010;4.446;2022-09-09T03:50:31;77384.16;;;-144.67;100.00
47522;BME280;32291;52.010;4.446;2022-09-09T03:51:33;77384.16;;;-144.67;100.00
47522;BME280;32291;52.010;4.446;2022-09-09T03:52:43;77384.16;;;-144.67;100.00
47522;BME280;32291;52.010;4.446;2022-09-09T03:53:47;77388.44;;;-144.67;100.00
47522;BME280;32291;52.010;4.446;2022-09-09T03:54:51;77390.56;;;-144.67;100.00
47522;BME280;32291;52.010;4.446;2022-09-09T03:55:57;77384.16;;;-144.67;100.00
47522;BME280;32291;52.010;4.446;2022-09-09T03:57:04;77384.16;;;-144.67;100.00
47522;BME280;32291;52.010;4.446;2022-09-09T03:58:23;77382.00;;;-144.67;100.00
47522;BME280;32291;52.010;4.446;2022-09-09T03:59:29;77384.16;;;-144.67;100.00
47522;BME280;32291;52.010;4.446;2022-09-09T04:00:34;77375.59;;;-144.67;100.00
47522;BME280;32291;52.010;4.446;2022-09-09T04:01:37;77379.88;;;-144.67;100.00
47522;BME280;32291;52.010;4.446;2022-09-09T04:02:43;77375.59;;;-144.67;100.00
47522;BME280;32291;52.010;4.446;2022-09-09T04:03:48;77379.88;;;-144.67;100.00
47522;BME280;32291;52.010;4.446;2022-09-09T04:04:53;77371.31;;;-144.67;100.00
47522;BME280;32291;52.010;4.446;2022-09-09T04:05:58;77371.31;;;-144.67;100.00
47522;BME280;32291;52.010;4.446;2022-09-09T04:07:04;77375.59;;;-144.67;100.00
47522;BME280;32291;52.010;4.446;2022-09-09T04:08:14;77379.88;;;-144.67;100.00
47522;BME280;32291;52.010;4.446;2022-09-09T04:09:23;77379.88;;;-144.67;100.00
47522;BME280;32291;52.010;4.446;2022-09-09T04:10:26;77386.28;;;-144.67;100.00
47522;BME280;32291;52.010;4.446;2022-09-09T04:11:30;77386.28;;;-144.67;100.00
47522;BME280;32291;52.010;4.446;2022-09-09T04:12:32;77375.59;;;-144.67;100.00
47522;BME280;32291;52.010;4.446;2022-09-09T04:13:38;77371.31;;;-144.67;100.00
47522;BME280;32291;52.010;4.446;2022-09-09T04:14:43;77375.59;;;-144.67;100.00
47522;BME280;32291;52.010;4.446;2022-09-09T04:15:57;77373.44;;;-144.67;100.00
47522;BME280;32291;52.010;4.446;2022-09-09T04:17:03;77377.72;;;-144.67;100.00
47522;BME280;32291;52.010;4.446;2022-09-09T04:18:10;77384.16;;;-144.67;100.00
47522;BME280;32291;52.010;4.446;2022-09-09T04:19:17;77386.28;;;-144.67;100.00
47522;BME280;32291;52.010;4.446;2022-09-09T04:20:26;77373.44;;;-144.67;100.00
47522;BME280;32291;52.010;4.446;2022-09-09T04:21:30;77375.59;;;-144.67;100.00
47522;BME280;32291;52.010;4.446;2022-09-09T04:22:33;77362.75;;;-144.67;100.00
47522;BME280;32291;52.010;4.446;2022-09-09T04:23:40;77371.31;;;-144.67;100.00
47522;BME280;32291;52.010;4.446;2022-09-09T04:24:53;77375.59;;;-144.67;100.00
47522;BME280;32291;52.010;4.446;2022-09-09T04:26:02;77373.44;;;-144.67;100.00
47522;BME280;32291;52.010;4.446;2022-09-09T04:27:11;77379.88;;;-144.67;100.00
47522;BME280;32291;52.010;4.446;2022-09-09T04:28:23;77388.44;;;-144.67;100.00
47522;BME280;32291;52.010;4.446;2022-09-09T04:29:30;77390.56;;;-144.67;100.00
47522;BME280;32291;52.010;4.446;2022-09-09T04:30:41;77382.00;;;-144.67;100.00
47522;BME280;32291;52.010;4.446;2022-09-09T04:31:52;77375.59;;;-144.67;100.00
47522;BME280;32291;52.010;4.446;2022-09-09T04:32:59;77382.00;;;-144.67;100.00
47522;BME280;32291;52.010;4.446;2022-09-09T04:34:02;77377.72;;;-144.67;100.00
47522;BME280;32291;52.010;4.446;2022-09-09T04:35:08;77384.16;;;-144.67;100.00
47522;BME280;32291;52.010;4.446;2022-09-09T04:36:14;77369.16;;;-144.67;100.00
47522;BME280;32291;52.010;4.446;2022-09-09T04:37:19;77371.31;;;-144.67;100.00
47522;BME280;32291;52.010;4.446;2022-09-09T04:38:31;77371.31;;;-144.67;100.00
47522;BME280;32291;52.010;4.446;2022-09-09T04:39:50;77375.59;;;-144.67;100.00
47522;BME280;32291;52.010;4.446;2022-09-09T04:40:54;77369.16;;;-144.67;100.00
47522;BME280;32291;52.010;4.446;2022-09-09T04:41:59;77371.31;;;-144.67;100.00
47522;BME280;32291;52.010;4.446;2022-09-09T04:43:03;77373.44;;;-144.67;100.00
47522;BME280;32291;52.010;4.446;2022-09-09T04:44:06;77364.88;;;-144.67;100.00
47522;BME280;32291;52.010;4.446;2022-09-09T04:45:10;77371.31;;;-144.67;100.00
47522;BME280;32291;52.010;4.446;2022-09-09T04:46:13;77367.03;;;-144.67;100.00
47522;BME280;32291;52.010;4.446;2022-09-09T04:47:15;77371.31;;;-144.67;100.00
47522;BME280;32291;52.010;4.446;2022-09-09T04:48:19;77379.88;;;-144.67;100.00
47522;BME280;32291;52.010;4.446;2022-09-09T04:49:23;77388.44;;;-144.67;100.00
47522;BME280;32291;52.010;4.446;2022-09-09T04:50:26;77392.72;;;-144.67;100.00
47522;BME280;32291;52.010;4.446;2022-09-09T04:51:36;77397.00;;;-144.67;100.00
47522;BME280;32291;52.010;4.446;2022-09-09T04:52:41;77397.00;;;-144.67;100.00
47522;BME280;32291;52.010;4.446;2022-09-09T04:53:45;77392.72;;;-144.67;100.00
47522;BME280;32291;52.010;4.446;2022-09-09T04:54:49;77397.00;;;-144.67;100.00
47522;BME280;32291;52.010;4.446;2022-09-09T04:56:14;77384.16;;;-144.67;100.00
47522;BME280;32291;52.010;4.446;2022-09-09T04:57:18;77384.16;;;-144.67;100.00
47522;BME280;32291;52.010;4.446;2022-09-09T04:58:24;77386.28;;;-144.67;100.00
47522;BME280;32291;52.010;4.446;2022-09-09T04:59:29;77384.16;;;-144.67;100.00
47522;BME280;32291;52.010;4.446;2022-09-09T05:00:36;77384.16;;;-144.67;100.00
47522;BME280;32291;52.010;4.446;2022-09-09T05:01:44;77392.72;;;-144.67;100.00
47522;BME280;32291;52.010;4.446;2022-09-09T05:02:48;77394.84;;;-144.67;100.00
47522;BME280;32291;52.010;4.446;2022-09-09T05:03:51;77394.84;;;-144.67;100.00
47522;BME280;32291;52.010;4.446;2022-09-09T05:04:55;77394.84;;;-144.67;100.00
47522;BME280;32291;52.010;4.446;2022-09-09T05:06:14;77388.44;;;-144.67;100.00
47522;BME280;32291;52.010;4.446;2022-09-09T05:07:24;77388.44;;;-144.67;100.00
47522;BME280;32291;52.010;4.446;2022-09-09T05:08:28;77390.56;;;-144.67;100.00
47522;BME280;32291;52.010;4.446;2022-09-09T05:09:31;77390.56;;;-144.67;100.00
47522;BME280;32291;52.010;4.446;2022-09-09T05:10:38;77401.28;;;-144.67;100.00
47522;BME280;32291;52.010;4.446;2022-09-09T05:11:47;77394.84;;;-144.67;100.00
47522;BME280;32291;52.010;4.446;2022-09-09T05:12:55;77397.00;;;-144.67;100.00
47522;BME280;32291;52.010;4.446;2022-09-09T05:13:58;77392.72;;;-144.67;100.00
47522;BME280;32291;52.010;4.446;2022-09-09T05:15:02;77386.28;;;-144.67;100.00
47522;BME280;32291;52.010;4.446;2022-09-09T05:16:05;77403.41;;;-144.67;100.00
47522;BME280;32291;52.010;4.446;2022-09-09T05:17:13;77388.44;;;-144.67;100.00
47522;BME280;32291;52.010;4.446;2022-09-09T05:18:22;77388.44;;;-144.67;100.00
47522;BME280;32291;52.010;4.446;2022-09-09T05:19:25;77384.16;;;-144.67;100.00
47522;BME280;32291;52.010;4.446;2022-09-09T05:20:30;77388.44;;;-144.67;100.00
47522;BME280;32291;52.010;4.446;2022-09-09T05:21:33;77388.44;;;-144.67;100.00
47522;BME280;32291;52.010;4.446;2022-09-09T05:22:37;77384.16;;;-144.67;100.00
47522;BME280;32291;52.010;4.446;2022-09-09T05:23:46;77392.72;;;-144.67;100.00
47522;BME280;32291;52.010;4.446;2022-09-09T05:24:50;77388.44;;;-144.67;100.00
47522;BME280;32291;52.010;4.446;2022-09-09T05:26:01;77392.72;;;-144.67;100.00
47522;BME280;32291;52.010;4.446;2022-09-09T05:27:14;77373.44;;;-144.67;100.00
47522;BME280;32291;52.010;4.446;2022-09-09T05:28:30;77377.72;;;-144.67;100.00
47522;BME280;32291;52.010;4.446;2022-09-09T05:29:36;77377.72;;;-144.67;100.00
47522;BME280;32291;52.010;4.446;2022-09-09T05:30:58;77375.59;;;-144.67;100.00
47522;BME280;32291;52.010;4.446;2022-09-09T05:32:07;77369.16;;;-144.67;100.00
47522;BME280;32291;52.010;4.446;2022-09-09T05:33:15;77371.31;;;-144.67;100.00
47522;BME280;32291;52.010;4.446;2022-09-09T05:34:19;77377.72;;;-144.67;100.00
47522;BME280;32291;52.010;4.446;2022-09-09T05:35:24;77373.44;;;-144.67;100.00
47522;BME280;32291;52.010;4.446;2022-09-09T05:36:29;77379.88;;;-144.67;100.00
47522;BME280;32291;52.010;4.446;2022-09-09T05:37:34;77373.44;;;-144.67;100.00
47522;BME280;32291;52.010;4.446;2022-09-09T05:38:44;77375.59;;;-144.67;100.00
47522;BME280;32291;52.010;4.446;2022-09-09T05:39:48;77369.16;;;-144.67;100.00
47522;BME280;32291;52.010;4.446;2022-09-09T05:40:52;77371.31;;;-144.67;100.00
47522;BME280;32291;52.010;4.446;2022-09-09T05:41:57;77371.31;;;-144.67;100.00
47522;BME280;32291;52.010;4.446;2022-09-09T05:43:00;77367.03;;;-144.67;100.00
47522;BME280;32291;52.010;4.446;2022-09-09T05:44:16;77371.31;;;-144.67;100.00
47522;BME280;32291;52.010;4.446;2022-09-09T05:45:18;77362.75;;;-144.67;100.00
47522;BME280;32291;52.010;4.446;2022-09-09T05:46:25;77362.75;;;-144.67;100.00
47522;BME280;32291;52.010;4.446;2022-09-09T05:47:31;77358.47;;;-144.67;100.00
47522;BME280;32291;52.010;4.446;2022-09-09T05:48:38;77349.91;;;-144.67;100.00
47522;BME280;32291;52.010;4.446;2022-09-09T05:49:42;77349.91;;;-144.67;100.00
47522;BME280;32291;52.010;4.446;2022-09-09T05:50:53;77345.63;;;-144.67;100.00
47522;BME280;32291;52.010;4.446;2022-09-09T05:51:59;77341.34;;;-144.67;100.00
47522;BME280;32291;52.010;4.446;2022-09-09T05:53:03;77341.34;;;-144.67;100.00
47522;BME280;32291;52.010;4.446;2022-09-09T05:54:08;77345.63;;;-144.67;100.00
47522;BME280;32291;52.010;4.446;2022-09-09T05:55:15;77341.34;;;-144.67;100.00
47522;BME280;32291;52.010;4.446;2022-09-09T05:56:23;77345.63;;;-144.67;100.00
47522;BME280;32291;52.010;4.446;2022-09-09T05:57:38;77334.94;;;-144.67;100.00
47522;BME280;32291;52.010;4.446;2022-09-09T05:58:47;77332.78;;;-144.67;100.00
47522;BME280;32291;52.010;4.446;2022-09-09T05:59:51;77326.38;;;-144.67;100.00
47522;BME280;32291;52.010;4.446;2022-09-09T06:01:19;77328.50;;;-144.67;100.00
47522;BME280;32291;52.010;4.446;2022-09-09T06:02:26;77332.78;;;-144.67;100.00
47522;BME280;32291;52.010;4.446;2022-09-09T06:03:37;77317.81;;;-144.67;100.00
47522;BME280;32291;52.010;4.446;2022-09-09T06:04:44;77326.38;;;-144.67;100.00
47522;BME280;32291;52.010;4.446;2022-09-09T06:06:01;77319.94;;;-144.67;100.00
47522;BME280;32291;52.010;4.446;2022-09-09T06:07:09;77326.38;;;-144.67;100.00
47522;BME280;32291;52.010;4.446;2022-09-09T06:08:23;77324.22;;;-144.67;100.00
47522;BME280;32291;52.010;4.446;2022-09-09T06:09:26;77311.38;;;-144.67;100.00
47522;BME280;32291;52.010;4.446;2022-09-09T06:10:31;77315.66;;;-144.67;100.00
47522;BME280;32291;52.010;4.446;2022-09-09T06:11:42;77319.94;;;-144.67;100.00
47522;BME280;32291;52.010;4.446;2022-09-09T06:12:46;77324.22;;;-144.67;100.00
47522;BME280;32291;52.010;4.446;2022-09-09T06:13:50;77324.22;;;-144.67;100.00
47522;BME280;32291;52.010;4.446;2022-09-09T06:14:56;77328.50;;;-144.67;100.00
47522;BME280;32291;52.010;4.446;2022-09-09T06:16:00;77328.50;;;-144.67;100.00
47522;BME280;32291;52.010;4.446;2022-09-09T06:17:05;77315.66;;;-144.67;100.00
47522;BME280;32291;52.010;4.446;2022-09-09T06:18:18;77311.38;;;-144.67;100.00
47522;BME280;32291;52.010;4.446;2022-09-09T06:19:27;77322.09;;;-144.67;100.00
47522;BME280;32291;52.010;4.446;2022-09-09T06:20:34;77317.81;;;-144.67;100.00
47522;BME280;32291;52.010;4.446;2022-09-09T06:22:17;77324.22;;;-144.67;100.00
47522;BME280;32291;52.010;4.446;2022-09-09T06:23:22;77315.66;;;-144.67;100.00
47522;BME280;32291;52.010;4.446;2022-09-09T06:24:29;77313.53;;;-144.67;100.00
47522;BME280;32291;52.010;4.446;2022-09-09T06:25:33;77315.66;;;-144.67;100.00
47522;BME280;32291;52.010;4.446;2022-09-09T06:26:38;77298.53;;;-144.67;100.00
47522;BME280;32291;52.010;4.446;2022-09-09T06:27:49;77300.69;;;-144.67;100.00
47522;BME280;32291;52.010;4.446;2022-09-09T06:28:54;77298.53;;;-144.67;100.00
47522;BME280;32291;52.010;4.446;2022-09-09T06:29:59;77300.69;;;-144.67;100.00
47522;BME280;32291;52.010;4.446;2022-09-09T06:31:06;77309.25;;;-144.67;100.00
47522;BME280;32291;52.010;4.446;2022-09-09T06:32:10;77302.81;;;-144.67;100.00
47522;BME280;32291;52.010;4.446;2022-09-09T06:33:14;77298.53;;;-144.67;100.00
47522;BME280;32291;52.010;4.446;2022-09-09T06:34:17;77300.69;;;-144.67;100.00